Time;durP1;ratioP1;P1;durP2;ratioP2;P2;SDS_P1;SDS_P2;PMS_P1;PMS_P2;Temp;Humidity;BMP_temperature;BMP_pressure;BME280_temperature;BME280_humidity;BME280_pressure;Samples;Min_cycle;Max_cycle;Signal;HPM_P1;HPM_P2
2022/11/16 00:00:18;;;;;;;;;;;;;;;;;;5109149;28;19923;-57
2022/11/16 00:02:43;;;;;;;;;;;;;;;;;;5108948;28;19973;-59
2022/11/16 00:05:08;;;;;;;;;;;;;;;;;;5109634;27;19923;-58
2022/11/16 00:07:34;;;;;;;;;;;;;;;;;;5107621;28;19915;-58
2022/11/16 00:09:59;;;;;;;;;;;;;;;;;;5108106;28;19942;-58
2022/11/16 00:12:34;;;;;;;;;;;;;;;;;;5108417;27;19923;-58
2022/11/16 00:14:59;;;;;;;;;;;;;;;;;;5108819;28;20422;-59
2022/11/16 00:17:25;;;;;;;;;;;;;;;;;;5105110;28;19923;-58
2022/11/16 00:19:50;;;;;;;;;;;;;;;;;;5109939;27;20300;-57
2022/11/16 00:22:16;;;;;;;;;;;;;;;;;;5107097;28;19916;-58
2022/11/16 00:24:41;;;;;;;;;;;;;;;;;;5106141;28;19916;-57
2022/11/16 00:27:06;;;;;;;;;;;;;;;;;;5104642;27;19961;-58
2022/11/16 00:29:31;;;;;;;;;;;;;;;;;;5107278;28;19923;-58
2022/11/16 00:31:57;;;;;;;;;;;;;;;;;;5107476;28;19976;-58
2022/11/16 00:34:23;;;;;;;;;;;;;;;;;;5105490;27;19920;-59
2022/11/16 00:36:48;;;;;;;;;;;;;;;;;;5108480;28;20369;-58
2022/11/16 00:39:14;;;;;;;;;;;;;;;;;;5107945;28;19962;-57
2022/11/16 00:41:40;;;;;;;;;;;;;;;;;;5105914;28;19963;-58
2022/11/16 00:44:05;;;;;;;;;;;;;;;;;;5108044;28;19927;-58
2022/11/16 00:46:31;;;;;;;;;;;;;;;;;;5107276;28;19915;-58
2022/11/16 00:48:56;;;;;;;;;;;;;;;;;;5107284;28;19923;-58
2022/11/16 00:51:21;;;;;;;;;;;;;;;;;;5107821;28;19968;-58
2022/11/16 00:53:46;;;;;;;;;;;;;;;;;;5107035;28;19935;-59
2022/11/16 00:56:12;;;;;;;;;;;;;;;;;;5110754;28;19915;-58
2022/11/16 00:58:37;;;;;;;;;;;;;;;;;;5108960;27;19923;-58
2022/11/16 01:01:04;;;;;;;;;;;;;;;;;;5112444;27;19931;-58
2022/11/16 01:03:29;;;;;;;;;;;;;;;;;;5105957;28;20006;-58
2022/11/16 01:05:59;;;;;;;;;;;;;;;;;;5106319;28;19998;-59
2022/11/16 01:08:24;;;;;;;;;;;;;;;;;;5108158;28;19926;-58
2022/11/16 01:10:49;;;;;;;;;;;;;;;;;;5107625;28;19915;-59
2022/11/16 01:13:14;;;;;;;;;;;;;;;;;;5106590;28;19961;-59
2022/11/16 01:15:45;;;;;;;;;;;;;;;;;;5106285;28;20565;-58
2022/11/16 01:18:11;;;;;;;;;;;;;;;;;;5107201;28;19916;-58
2022/11/16 01:20:39;;;;;;;;;;;;;;;;;;5109630;27;19923;-58
2022/11/16 01:23:04;;;;;;;;;;;;;;;;;;5107786;28;19924;-58
2022/11/16 01:25:29;;;;;;;;;;;;;;;;;;5105076;28;20029;-58
2022/11/16 01:27:55;;;;;;;;;;;;;;;;;;5111145;27;20089;-58
2022/11/16 01:30:20;;;;;;;;;;;;;;;;;;5101168;28;19916;-58
2022/11/16 01:32:46;;;;;;;;;;;;;;;;;;5105108;28;19916;-58
2022/11/16 01:35:14;;;;;;;;;;;;;;;;;;5109533;27;19923;-58
2022/11/16 01:37:39;;;;;;;;;;;;;;;;;;5106295;28;20393;-58
2022/11/16 01:40:05;;;;;;;;;;;;;;;;;;5105378;28;19920;-58
2022/11/16 01:42:32;;;;;;;;;;;;;;;;;;5104445;28;19919;-57
2022/11/16 01:45:05;;;;;;;;;;;;;;;;;;5108032;28;19915;-58
2022/11/16 01:47:31;;;;;;;;;;;;;;;;;;5101057;28;19923;-58
2022/11/16 01:50:00;;;;;;;;;;;;;;;;;;5107329;28;20309;-58
2022/11/16 01:52:28;;;;;;;;;;;;;;;;;;5105951;28;19924;-58
2022/11/16 01:54:54;;;;;;;;;;;;;;;;;;5108471;28;19927;-58
2022/11/16 01:57:24;;;;;;;;;;;;;;;;;;5108050;28;20373;-58
2022/11/16 01:59:54;;;;;;;;;;;;;;;;;;5106655;28;19923;-58
2022/11/16 02:02:19;;;;;;;;;;;;;;;;;;5105757;28;19915;-58
2022/11/16 02:04:46;;;;;;;;;;;;;;;;;;5108092;28;19920;-58
2022/11/16 02:07:17;;;;;;;;;;;;;;;;;;5102001;28;20381;-59
2022/11/16 02:10:01;;;;;;;;;;;;;;;;;;5108442;28;19923;-59
2022/11/16 02:12:26;;;;;;;;;;;;;;;;;;5104032;28;19961;-58
2022/11/16 02:14:57;;;;;;;;;;;;;;;;;;5107556;28;20585;-58
2022/11/16 02:17:28;;;;;;;;;;;;;;;;;;5106739;28;20304;-58
2022/11/16 02:20:12;;;;;;;;;;;;;;;;;;5103332;28;19923;-58
2022/11/16 02:22:52;;;;;;;;;;;;;;;;;;5102141;28;20354;-58
2022/11/16 02:25:36;;;;;;;;;;;;;;;;;;5104326;28;19916;-58
2022/11/16 02:28:24;;;;;;;;;;;;;;;;;;5104963;28;19916;-57
2022/11/16 02:30:51;;;;;;;;;;;;;;;;;;5104650;28;19924;-56
2022/11/16 02:33:19;;;;;;;;;;;;;;;;;;5103857;28;20052;-57
2022/11/16 02:35:46;;;;;;;;;;;;;;;;;;5110376;28;19938;-58
2022/11/16 02:38:14;;;;;;;;;;;;;;;;;;5111442;28;20456;-57
2022/11/16 02:40:41;;;;;;;;;;;;;;;;;;5111150;28;19916;-57
2022/11/16 02:43:08;;;;;;;;;;;;;;;;;;5109982;28;19916;-57
2022/11/16 02:45:36;;;;;;;;;;;;;;;;;;5110277;27;19920;-57
2022/11/16 02:48:13;;;;;;;;;;;;;;;;;;5112706;27;19919;-57
2022/11/16 02:50:39;;;;;;;;;;;;;;;;;;5107161;28;20343;-57
2022/11/16 02:53:04;;;;;;;;;;;;;;;;;;5111083;28;19923;-57
2022/11/16 02:55:32;;;;;;;;;;;;;;;;;;5112154;27;19916;-58
2022/11/16 02:58:01;;;;;;;;;;;;;;;;;;5110652;28;19915;-57
2022/11/16 03:00:42;;;;;;;;;;;;;;;;;;5112021;27;20373;-57
2022/11/16 03:03:27;;;;;;;;;;;;;;;;;;5111044;27;19920;-57
2022/11/16 03:05:55;;;;;;;;;;;;;;;;;;5109465;28;19959;-58
2022/11/16 03:08:23;;;;;;;;;;;;;;;;;;5110114;27;19951;-57
2022/11/16 03:13:37;;;;;;;;;;;;;;;;;;5108952;28;19983;-56
2022/11/16 03:16:07;;;;;;;;;;;;;;;;;;5110988;28;19938;-57
2022/11/16 03:18:32;;;;;;;;;;;;;;;;;;5109990;28;20277;-57
2022/11/16 03:21:05;;;;;;;;;;;;;;;;;;5107666;28;20003;-56
2022/11/16 03:23:30;;;;;;;;;;;;;;;;;;5104512;27;19938;-58
2022/11/16 03:25:56;;;;;;;;;;;;;;;;;;5110747;28;19916;-58
2022/11/16 03:28:31;;;;;;;;;;;;;;;;;;5108273;28;19920;-58
2022/11/16 03:30:59;;;;;;;;;;;;;;;;;;5109840;28;19915;-58
2022/11/16 03:33:28;;;;;;;;;;;;;;;;;;5105326;28;19923;-57
2022/11/16 03:35:59;;;;;;;;;;;;;;;;;;5100933;27;19969;-58
2022/11/16 03:38:26;;;;;;;;;;;;;;;;;;5107439;27;19916;-57
2022/11/16 03:40:53;;;;;;;;;;;;;;;;;;5110413;27;19916;-58
2022/11/16 03:43:19;;;;;;;;;;;;;;;;;;5107441;28;19935;-58
2022/11/16 03:45:45;;;;;;;;;;;;;;;;;;5108687;28;19966;-58
2022/11/16 03:48:10;;;;;;;;;;;;;;;;;;5106590;28;20433;-58
2022/11/16 03:50:36;;;;;;;;;;;;;;;;;;5111355;28;19915;-59
2022/11/16 03:53:01;;;;;;;;;;;;;;;;;;5108731;28;20020;-58
2022/11/16 03:55:26;;;;;;;;;;;;;;;;;;5111197;27;19920;-57
2022/11/16 03:57:51;;;;;;;;;;;;;;;;;;5108573;27;19922;-57
2022/11/16 04:00:17;;;;;;;;;;;;;;;;;;5112033;27;19941;-59
2022/11/16 04:02:42;;;;;;;;;;;;;;;;;;5108445;28;19916;-58
2022/11/16 04:24:25;;;;;;;;;;;;;;;;;;5110258;28;20391;-59
2022/11/16 04:29:42;;;;;;;;;;;;;;;;;;5105403;27;20019;-55
2022/11/16 04:37:47;;;;;;;;;;;;;;;;;;5101165;27;19924;-58
2022/11/16 04:40:13;;;;;;;;;;;;;;;;;;5108538;28;19972;-57
2022/11/16 04:42:38;;;;;;;;;;;;;;;;;;5108578;28;20353;-57
2022/11/16 04:47:48;;;;;;;;;;;;;;;;;;5107820;28;19922;-56
2022/11/16 04:50:13;;;;;;;;;;;;;;;;;;5104894;28;19922;-56
2022/11/16 04:52:38;;;;;;;;;;;;;;;;;;5108538;28;20014;-56
2022/11/16 04:55:04;;;;;;;;;;;;;;;;;;5109819;27;19926;-55
2022/11/16 04:57:29;;;;;;;;;;;;;;;;;;5109099;28;19923;-57
2022/11/16 04:59:58;;;;;;;;;;;;;;;;;;5109218;28;20375;-56
2022/11/16 05:02:23;;;;;;;;;;;;;;;;;;5109425;27;19966;-56
2022/11/16 05:04:48;;;;;;;;;;;;;;;;;;5106765;28;19955;-57
2022/11/16 05:07:14;;;;;;;;;;;;;;;;;;5107288;28;19935;-56
2022/11/16 05:09:41;;;;;;;;;;;;;;;;;;5106522;28;19920;-56
2022/11/16 05:12:10;;;;;;;;;;;;;;;;;;5109986;27;19968;-56
2022/11/16 05:14:36;;;;;;;;;;;;;;;;;;5105080;28;19920;-58
2022/11/16 05:17:01;;;;;;;;;;;;;;;;;;5107641;28;19920;-57
2022/11/16 05:22:10;;;;;;;;;;;;;;;;;;5105675;28;19923;-57
2022/11/16 05:24:36;;;;;;;;;;;;;;;;;;5106967;28;19923;-57
2022/11/16 05:27:05;;;;;;;;;;;;;;;;;;5104687;28;20020;-57
2022/11/16 05:29:31;;;;;;;;;;;;;;;;;;5109646;28;20123;-57
2022/11/16 05:31:57;;;;;;;;;;;;;;;;;;5103691;28;20018;-56
2022/11/16 05:34:22;;;;;;;;;;;;;;;;;;5101433;28;19920;-60
2022/11/16 05:36:47;;;;;;;;;;;;;;;;;;5103690;28;19916;-60
2022/11/16 05:39:13;;;;;;;;;;;;;;;;;;5105876;28;20584;-60
2022/11/16 05:41:41;;;;;;;;;;;;;;;;;;5105358;28;19920;-60
2022/11/16 05:44:06;;;;;;;;;;;;;;;;;;5103391;28;19916;-60
2022/11/16 05:46:32;;;;;;;;;;;;;;;;;;5103621;28;19919;-60
2022/11/16 05:48:57;;;;;;;;;;;;;;;;;;5107656;28;19987;-59
2022/11/16 05:51:22;;;;;;;;;;;;;;;;;;5107346;28;19963;-59
2022/11/16 05:53:48;;;;;;;;;;;;;;;;;;5107338;28;19993;-59
2022/11/16 05:56:14;;;;;;;;;;;;;;;;;;5107927;28;19962;-60
2022/11/16 05:58:40;;;;;;;;;;;;;;;;;;5108338;28;19968;-60
2022/11/16 06:01:05;;;;;;;;;;;;;;;;;;5108100;27;19920;-59
2022/11/16 06:03:30;;;;;;;;;;;;;;;;;;5105715;28;19964;-58
2022/11/16 06:05:56;;;;;;;;;;;;;;;;;;5111313;28;19943;-57
2022/11/16 06:08:21;;;;;;;;;;;;;;;;;;5110044;28;19975;-60
2022/11/16 06:10:46;;;;;;;;;;;;;;;;;;5111214;28;19912;-59
2022/11/16 06:13:12;;;;;;;;;;;;;;;;;;5112461;28;20007;-60
2022/11/16 06:15:37;;;;;;;;;;;;;;;;;;5109927;28;19920;-60
2022/11/16 06:18:03;;;;;;;;;;;;;;;;;;5109456;28;19915;-59
2022/11/16 06:20:28;;;;;;;;;;;;;;;;;;5108331;28;19988;-60
2022/11/16 06:22:54;;;;;;;;;;;;;;;;;;5112548;28;19919;-60
2022/11/16 06:25:19;;;;;;;;;;;;;;;;;;5108711;28;19920;-60
2022/11/16 06:27:44;;;;;;;;;;;;;;;;;;5110182;28;19923;-59
2022/11/16 06:30:10;;;;;;;;;;;;;;;;;;5107327;28;19995;-59
2022/11/16 06:32:35;;;;;;;;;;;;;;;;;;5108148;28;19919;-60
2022/11/16 06:35:00;;;;;;;;;;;;;;;;;;5107991;27;19931;-59
2022/11/16 06:37:25;;;;;;;;;;;;;;;;;;5108897;28;20682;-59
2022/11/16 06:39:51;;;;;;;;;;;;;;;;;;5109229;28;19916;-59
2022/11/16 06:42:16;;;;;;;;;;;;;;;;;;5107656;27;19915;-59
2022/11/16 06:44:41;;;;;;;;;;;;;;;;;;5108453;28;19982;-59
2022/11/16 06:47:06;;;;;;;;;;;;;;;;;;5110377;28;20561;-58
2022/11/16 06:49:32;;;;;;;;;;;;;;;;;;5112559;28;19916;-59
2022/11/16 06:51:57;;;;;;;;;;;;;;;;;;5110918;28;19923;-58
2022/11/16 06:54:22;;;;;;;;;;;;;;;;;;5111002;28;19926;-60
2022/11/16 06:56:48;;;;;;;;;;;;;;;;;;5109498;28;19916;-59
2022/11/16 06:59:13;;;;;;;;;;;;;;;;;;5110577;28;19919;-59
2022/11/16 07:01:38;;;;;;;;;;;;;;;;;;5110043;28;19926;-59
2022/11/16 07:04:03;;;;;;;;;;;;;;;;;;5110921;28;19921;-58
2022/11/16 07:06:29;;;;;;;;;;;;;;;;;;5107810;28;20365;-58
2022/11/16 07:08:54;;;;;;;;;;;;;;;;;;5111304;28;19931;-59
2022/11/16 07:11:19;;;;;;;;;;;;;;;;;;5110165;28;20432;-59
2022/11/16 07:13:45;;;;;;;;;;;;;;;;;;5108464;28;19927;-59
2022/11/16 07:16:10;;;;;;;;;;;;;;;;;;5108472;28;19919;-58
2022/11/16 07:18:37;;;;;;;;;;;;;;;;;;5109595;28;19920;-58
2022/11/16 07:21:06;;;;;;;;;;;;;;;;;;5111244;28;20290;-59
2022/11/16 07:23:31;;;;;;;;;;;;;;;;;;5106667;28;20371;-58
2022/11/16 07:26:00;;;;;;;;;;;;;;;;;;5108828;28;20003;-58
2022/11/16 07:28:26;;;;;;;;;;;;;;;;;;5103665;28;19912;-58
2022/11/16 07:30:51;;;;;;;;;;;;;;;;;;5107132;28;20504;-59
2022/11/16 07:33:17;;;;;;;;;;;;;;;;;;5105283;28;20010;-58
2022/11/16 07:35:42;;;;;;;;;;;;;;;;;;5107106;28;19942;-59
2022/11/16 07:38:07;;;;;;;;;;;;;;;;;;5109543;28;19950;-59
2022/11/16 07:40:32;;;;;;;;;;;;;;;;;;5106056;28;20412;-59
2022/11/16 07:42:58;;;;;;;;;;;;;;;;;;5105888;28;19911;-59
2022/11/16 07:45:23;;;;;;;;;;;;;;;;;;5111587;28;19926;-60
2022/11/16 07:47:51;;;;;;;;;;;;;;;;;;5111215;28;19919;-59
2022/11/16 07:50:16;;;;;;;;;;;;;;;;;;5111374;28;19971;-61
2022/11/16 07:52:45;;;;;;;;;;;;;;;;;;5109927;28;19965;-59
2022/11/16 07:55:10;;;;;;;;;;;;;;;;;;5109613;28;19988;-59
2022/11/16 07:57:36;;;;;;;;;;;;;;;;;;5108536;28;19911;-57
2022/11/16 08:00:01;;;;;;;;;;;;;;;;;;5108611;28;19916;-58
2022/11/16 08:02:26;;;;;;;;;;;;;;;;;;5106598;28;19922;-58
2022/11/16 08:04:52;;;;;;;;;;;;;;;;;;5109133;28;19919;-58
2022/11/16 08:07:17;;;;;;;;;;;;;;;;;;5110217;27;20018;-58
2022/11/16 08:09:43;;;;;;;;;;;;;;;;;;5109599;28;20369;-59
2022/11/16 08:12:08;;;;;;;;;;;;;;;;;;5107008;28;20278;-58
2022/11/16 08:14:33;;;;;;;;;;;;;;;;;;5108774;27;19924;-59
2022/11/16 08:16:59;;;;;;;;;;;;;;;;;;5107025;27;19916;-58
2022/11/16 08:19:24;;;;;;;;;;;;;;;;;;5112992;27;19915;-58
2022/11/16 08:21:49;;;;;;;;;;;;;;;;;;5111093;27;19923;-58
2022/11/16 08:24:15;;;;;;;;;;;;;;;;;;5108278;27;19994;-58
2022/11/16 08:26:40;;;;;;;;;;;;;;;;;;5109614;27;19963;-59
2022/11/16 08:29:05;;;;;;;;;;;;;;;;;;5107263;27;19916;-58
2022/11/16 08:31:31;;;;;;;;;;;;;;;;;;5110585;27;19923;-57
2022/11/16 08:33:58;;;;;;;;;;;;;;;;;;5105699;28;20191;-58
2022/11/16 08:36:23;;;;;;;;;;;;;;;;;;5109363;27;20377;-57
2022/11/16 08:38:50;;;;;;;;;;;;;;;;;;5106811;27;19915;-58
2022/11/16 08:41:16;;;;;;;;;;;;;;;;;;5106591;27;19950;-58
2022/11/16 08:43:45;;;;;;;;;;;;;;;;;;5120816;27;19916;-59
2022/11/16 08:46:11;;;;;;;;;;;;;;;;;;5109853;27;19968;-58
2022/11/16 08:48:36;;;;;;;;;;;;;;;;;;5113228;27;19916;-59
2022/11/16 08:51:03;;;;;;;;;;;;;;;;;;5110064;27;20309;-58
2022/11/16 08:53:28;;;;;;;;;;;;;;;;;;5108910;27;19915;-59
2022/11/16 08:55:53;;;;;;;;;;;;;;;;;;5113463;27;19996;-59
2022/11/16 08:58:19;;;;;;;;;;;;;;;;;;5114789;27;19915;-58
2022/11/16 09:00:44;;;;;;;;;;;;;;;;;;5106550;27;20299;-59
2022/11/16 09:03:09;;;;;;;;;;;;;;;;;;5110154;27;20339;-59
2022/11/16 09:05:34;;;;;;;;;;;;;;;;;;5107541;27;19927;-59
2022/11/16 09:08:00;;;;;;;;;;;;;;;;;;5108039;28;20007;-59
2022/11/16 09:10:25;;;;;;;;;;;;;;;;;;5107043;28;19975;-59
2022/11/16 09:12:51;;;;;;;;;;;;;;;;;;5105959;28;19937;-58
2022/11/16 09:15:18;;;;;;;;;;;;;;;;;;5105895;27;19963;-58
2022/11/16 09:17:44;;;;;;;;;;;;;;;;;;5108478;27;19961;-58
2022/11/16 09:20:18;;;;;;;;;;;;;;;;;;5107650;27;20312;-58
2022/11/16 09:22:43;;;;;;;;;;;;;;;;;;5101906;28;20373;-60
2022/11/16 09:25:08;;;;;;;;;;;;;;;;;;5105645;28;19976;-58
2022/11/16 09:27:34;;;;;;;;;;;;;;;;;;5105645;28;19939;-56
2022/11/16 09:29:59;;;;;;;;;;;;;;;;;;5105978;27;19916;-59
2022/11/16 09:32:24;;;;;;;;;;;;;;;;;;5107309;27;19960;-59
2022/11/16 09:34:49;;;;;;;;;;;;;;;;;;5113868;27;19935;-56
2022/11/16 09:37:15;;;;;;;;;;;;;;;;;;5110985;28;20319;-57
2022/11/16 09:39:40;;;;;;;;;;;;;;;;;;5106313;28;19915;-57
2022/11/16 09:42:35;;;;;;;;;;;;;;;;;;5110889;28;19951;-57
2022/11/16 09:45:03;;;;;;;;;;;;;;;;;;5058481;28;19916;-58
2022/11/16 09:47:44;;;;;;;;;;;;;;;;;;5113389;28;19916;-57
2022/11/16 09:50:17;;;;;;;;;;;;;;;;;;5102927;28;19920;-58
2022/11/16 09:52:45;;;;;;;;;;;;;;;;;;5108270;28;19919;-57
2022/11/16 09:55:25;;;;;;;;;;;;;;;;;;5112567;28;20010;-58
2022/11/16 09:57:52;;;;;;;;;;;;;;;;;;5107790;28;19923;-58
2022/11/16 10:00:21;;;;;;;;;;;;;;;;;;5107773;28;19915;-57
2022/11/16 10:02:58;;;;;;;;;;;;;;;;;;5114639;28;19998;-58
2022/11/16 10:05:41;;;;;;;;;;;;;;;;;;5112169;28;19922;-58
2022/11/16 10:08:13;;;;;;;;;;;;;;;;;;5107915;28;19920;-57
2022/11/16 10:10:42;;;;;;;;;;;;;;;;;;5107958;28;19912;-58
2022/11/16 10:13:22;;;;;;;;;;;;;;;;;;5108947;28;19922;-57
2022/11/16 10:15:47;;;;;;;;;;;;;;;;;;5104028;28;20036;-58
2022/11/16 10:18:35;;;;;;;;;;;;;;;;;;5107846;28;20038;-58
2022/11/16 10:21:02;;;;;;;;;;;;;;;;;;5100805;28;20053;-58
2022/11/16 10:23:30;;;;;;;;;;;;;;;;;;5112094;28;20393;-58
2022/11/16 10:26:00;;;;;;;;;;;;;;;;;;5105623;28;20020;-58
2022/11/16 10:28:33;;;;;;;;;;;;;;;;;;5105097;28;19923;-59
2022/11/16 10:31:03;;;;;;;;;;;;;;;;;;5102899;28;19976;-58
2022/11/16 10:33:34;;;;;;;;;;;;;;;;;;5104501;28;19912;-58
2022/11/16 10:36:00;;;;;;;;;;;;;;;;;;5107005;28;19923;-59
2022/11/16 10:38:29;;;;;;;;;;;;;;;;;;5102879;28;19920;-58
2022/11/16 10:41:01;;;;;;;;;;;;;;;;;;5108773;28;19947;-59
2022/11/16 10:43:28;;;;;;;;;;;;;;;;;;5103032;28;20447;-58
2022/11/16 10:46:12;;;;;;;;;;;;;;;;;;5108772;28;19927;-59
2022/11/16 10:48:41;;;;;;;;;;;;;;;;;;5110681;28;19923;-58
2022/11/16 10:51:07;;;;;;;;;;;;;;;;;;5110528;27;19911;-58
2022/11/16 10:53:32;;;;;;;;;;;;;;;;;;5109513;27;19976;-59
2022/11/16 10:56:13;;;;;;;;;;;;;;;;;;5110071;28;19916;-59
2022/11/16 10:58:51;;;;;;;;;;;;;;;;;;5113382;27;19996;-58
2022/11/16 11:01:28;;;;;;;;;;;;;;;;;;5109635;27;19916;-58
2022/11/16 11:03:53;;;;;;;;;;;;;;;;;;5108882;28;19931;-58
2022/11/16 11:06:19;;;;;;;;;;;;;;;;;;5107025;27;19923;-58
2022/11/16 11:08:45;;;;;;;;;;;;;;;;;;5112332;27;20359;-58
2022/11/16 11:14:03;;;;;;;;;;;;;;;;;;5111596;27;19942;-58
2022/11/16 11:16:29;;;;;;;;;;;;;;;;;;5104506;28;20365;-59
2022/11/16 11:18:54;;;;;;;;;;;;;;;;;;5105148;27;19981;-57
2022/11/16 11:21:22;;;;;;;;;;;;;;;;;;5107886;27;19926;-58
2022/11/16 11:23:51;;;;;;;;;;;;;;;;;;5109786;27;20074;-59
2022/11/16 11:26:25;;;;;;;;;;;;;;;;;;5109534;27;19923;-59
2022/11/16 11:28:51;;;;;;;;;;;;;;;;;;5106403;27;19923;-59
2022/11/16 11:31:24;;;;;;;;;;;;;;;;;;5107903;27;20281;-59
2022/11/16 11:33:58;;;;;;;;;;;;;;;;;;5112787;27;19935;-58
2022/11/16 11:36:23;;;;;;;;;;;;;;;;;;5111548;27;19915;-58
2022/11/16 11:38:55;;;;;;;;;;;;;;;;;;5108380;27;19934;-58
2022/11/16 11:41:20;;;;;;;;;;;;;;;;;;5107911;27;19924;-58
2022/11/16 11:43:59;;;;;;;;;;;;;;;;;;5111451;27;19968;-59
2022/11/16 11:46:26;;;;;;;;;;;;;;;;;;5110663;27;19969;-59
2022/11/16 11:49:15;;;;;;;;;;;;;;;;;;5104035;27;19954;-59
2022/11/16 11:51:41;;;;;;;;;;;;;;;;;;5103970;27;19916;-59
2022/11/16 11:54:14;;;;;;;;;;;;;;;;;;5112529;27;19978;-61
2022/11/16 11:56:39;;;;;;;;;;;;;;;;;;5108620;28;19915;-61
2022/11/16 11:59:05;;;;;;;;;;;;;;;;;;5141064;27;20343;-61
2022/11/16 12:01:39;;;;;;;;;;;;;;;;;;5109786;27;19916;-61
2022/11/16 12:04:04;;;;;;;;;;;;;;;;;;5108486;27;20347;-61
2022/11/16 12:06:50;;;;;;;;;;;;;;;;;;5108651;27;19920;-61
2022/11/16 12:09:21;;;;;;;;;;;;;;;;;;5103655;28;19955;-61
2022/11/16 12:11:53;;;;;;;;;;;;;;;;;;5107322;28;19923;-62
2022/11/16 12:14:36;;;;;;;;;;;;;;;;;;5110291;27;19920;-61
2022/11/16 12:17:04;;;;;;;;;;;;;;;;;;5110485;27;19915;-60
2022/11/16 12:19:56;;;;;;;;;;;;;;;;;;5103418;27;20309;-61
2022/11/16 12:22:21;;;;;;;;;;;;;;;;;;5112333;27;19998;-60
2022/11/16 12:24:52;;;;;;;;;;;;;;;;;;5111601;27;20031;-61
2022/11/16 12:27:30;;;;;;;;;;;;;;;;;;5108415;27;20714;-60
2022/11/16 12:30:13;;;;;;;;;;;;;;;;;;5105470;27;20010;-61
2022/11/16 12:32:48;;;;;;;;;;;;;;;;;;5109705;27;19947;-61
2022/11/16 12:35:31;;;;;;;;;;;;;;;;;;5114768;27;19923;-60
2022/11/16 12:38:09;;;;;;;;;;;;;;;;;;5111941;27;20002;-61
2022/11/16 12:40:52;;;;;;;;;;;;;;;;;;5106712;28;19942;-61
2022/11/16 12:43:20;;;;;;;;;;;;;;;;;;5109156;27;19923;-61
2022/11/16 12:45:45;;;;;;;;;;;;;;;;;;5114577;27;19976;-60
2022/11/16 12:48:23;;;;;;;;;;;;;;;;;;5109867;28;19915;-60
2022/11/16 12:51:11;;;;;;;;;;;;;;;;;;5110359;27;19916;-60
2022/11/16 12:53:45;;;;;;;;;;;;;;;;;;5106808;28;19923;-60
2022/11/16 12:56:43;;;;;;;;;;;;;;;;;;5110540;27;19916;-61
2022/11/16 12:59:08;;;;;;;;;;;;;;;;;;5084030;27;19922;-60
2022/11/16 13:01:44;;;;;;;;;;;;;;;;;;5107422;28;19920;-61
2022/11/16 13:04:13;;;;;;;;;;;;;;;;;;5104725;27;20000;-61
2022/11/16 13:06:43;;;;;;;;;;;;;;;;;;5103592;27;20389;-61
2022/11/16 13:09:15;;;;;;;;;;;;;;;;;;5107990;27;20022;-61
2022/11/16 13:11:45;;;;;;;;;;;;;;;;;;5110769;27;19916;-61
2022/11/16 13:14:14;;;;;;;;;;;;;;;;;;5101571;28;19919;-61
2022/11/16 13:16:39;;;;;;;;;;;;;;;;;;5106460;28;20388;-61
2022/11/16 13:19:08;;;;;;;;;;;;;;;;;;5106060;28;19968;-60
2022/11/16 13:21:46;;;;;;;;;;;;;;;;;;5105017;27;19916;-60
2022/11/16 13:24:43;;;;;;;;;;;;;;;;;;5106853;28;20373;-60
2022/11/16 13:27:09;;;;;;;;;;;;;;;;;;5084640;27;20333;-60
2022/11/16 13:29:52;;;;;;;;;;;;;;;;;;5107114;28;19938;-60
2022/11/16 13:32:38;;;;;;;;;;;;;;;;;;5104272;27;20341;-61
2022/11/16 13:35:04;;;;;;;;;;;;;;;;;;5107436;27;19920;-61
2022/11/16 13:37:33;;;;;;;;;;;;;;;;;;5111866;27;19923;-61
2022/11/16 13:39:58;;;;;;;;;;;;;;;;;;5109122;28;19922;-61
2022/11/16 13:42:24;;;;;;;;;;;;;;;;;;5107306;28;20006;-61
2022/11/16 13:44:49;;;;;;;;;;;;;;;;;;5109146;28;19972;-61
2022/11/16 13:47:20;;;;;;;;;;;;;;;;;;5109181;28;19920;-61
2022/11/16 13:49:55;;;;;;;;;;;;;;;;;;5111679;28;19931;-61
2022/11/16 13:52:20;;;;;;;;;;;;;;;;;;5106962;28;20010;-61
2022/11/16 13:54:47;;;;;;;;;;;;;;;;;;5109661;28;20341;-62
2022/11/16 13:57:22;;;;;;;;;;;;;;;;;;5110122;28;19923;-61
2022/11/16 13:59:48;;;;;;;;;;;;;;;;;;5106027;28;19923;-62
2022/11/16 14:02:43;;;;;;;;;;;;;;;;;;5106266;28;19996;-61
2022/11/16 14:05:11;;;;;;;;;;;;;;;;;;5097500;28;19922;-62
2022/11/16 14:07:42;;;;;;;;;;;;;;;;;;5108151;28;19951;-63
2022/11/16 14:10:08;;;;;;;;;;;;;;;;;;5112325;28;19951;-61
2022/11/16 14:12:36;;;;;;;;;;;;;;;;;;5105122;28;20293;-60
2022/11/16 14:15:14;;;;;;;;;;;;;;;;;;5109889;28;20034;-62
2022/11/16 14:18:00;;;;;;;;;;;;;;;;;;5100987;28;19942;-61
2022/11/16 14:20:51;;;;;;;;;;;;;;;;;;5098070;28;19924;-61
2022/11/16 14:23:36;;;;;;;;;;;;;;;;;;5104402;28;19923;-61
2022/11/16 14:26:01;;;;;;;;;;;;;;;;;;5104085;27;20324;-61
2022/11/16 14:28:42;;;;;;;;;;;;;;;;;;5111884;27;19950;-61
2022/11/16 14:31:13;;;;;;;;;;;;;;;;;;5107698;27;19932;-61
2022/11/16 14:33:38;;;;;;;;;;;;;;;;;;5111040;27;19919;-61
2022/11/16 14:36:06;;;;;;;;;;;;;;;;;;5109345;27;19933;-60
2022/11/16 14:38:32;;;;;;;;;;;;;;;;;;5107762;27;19916;-60
2022/11/16 14:40:59;;;;;;;;;;;;;;;;;;5116352;27;19956;-62
2022/11/16 14:43:26;;;;;;;;;;;;;;;;;;5110465;28;20011;-61
2022/11/16 14:45:57;;;;;;;;;;;;;;;;;;5111850;28;19923;-61
2022/11/16 14:48:25;;;;;;;;;;;;;;;;;;5111760;28;20006;-61
2022/11/16 14:51:02;;;;;;;;;;;;;;;;;;5106199;28;19915;-61
2022/11/16 14:53:28;;;;;;;;;;;;;;;;;;5106637;28;19961;-61
2022/11/16 14:56:03;;;;;;;;;;;;;;;;;;5116116;27;19927;-61
2022/11/16 14:58:29;;;;;;;;;;;;;;;;;;5107954;27;19941;-61
2022/11/16 15:01:02;;;;;;;;;;;;;;;;;;5111263;27;20456;-63
2022/11/16 15:03:29;;;;;;;;;;;;;;;;;;5107878;27;20321;-61
2022/11/16 15:05:58;;;;;;;;;;;;;;;;;;5116973;27;20312;-60
2022/11/16 15:08:28;;;;;;;;;;;;;;;;;;5108182;27;19916;-61
2022/11/16 15:10:55;;;;;;;;;;;;;;;;;;5110168;27;19962;-61
2022/11/16 15:13:22;;;;;;;;;;;;;;;;;;5110493;27;20528;-60
2022/11/16 15:15:48;;;;;;;;;;;;;;;;;;5121584;27;19995;-61
2022/11/16 15:18:16;;;;;;;;;;;;;;;;;;5113492;27;19912;-61
2022/11/16 15:20:47;;;;;;;;;;;;;;;;;;5117124;27;19911;-60
2022/11/16 15:23:13;;;;;;;;;;;;;;;;;;5107831;28;20369;-61
2022/11/16 15:25:43;;;;;;;;;;;;;;;;;;5108164;27;19958;-61
2022/11/16 15:28:17;;;;;;;;;;;;;;;;;;5113072;28;19915;-61
2022/11/16 15:30:48;;;;;;;;;;;;;;;;;;5117695;27;19994;-61
2022/11/16 15:33:15;;;;;;;;;;;;;;;;;;5101570;27;19972;-61
2022/11/16 15:35:40;;;;;;;;;;;;;;;;;;5107202;27;19923;-61
2022/11/16 15:38:13;;;;;;;;;;;;;;;;;;5106878;27;19912;-60
2022/11/16 15:40:39;;;;;;;;;;;;;;;;;;5106755;28;19963;-61
2022/11/16 15:43:05;;;;;;;;;;;;;;;;;;5112212;28;19958;-61
2022/11/16 15:45:31;;;;;;;;;;;;;;;;;;5144522;27;19911;-61
2022/11/16 15:47:59;;;;;;;;;;;;;;;;;;5111128;27;19915;-61
2022/11/16 15:50:24;;;;;;;;;;;;;;;;;;5112139;27;20007;-60
2022/11/16 15:52:54;;;;;;;;;;;;;;;;;;5109989;27;19951;-61
2022/11/16 15:55:37;;;;;;;;;;;;;;;;;;5108465;27;20389;-61
2022/11/16 15:58:11;;;;;;;;;;;;;;;;;;5107130;28;19912;-61
2022/11/16 16:00:37;;;;;;;;;;;;;;;;;;5112342;27;19920;-61
2022/11/16 16:03:15;;;;;;;;;;;;;;;;;;5107080;28;19926;-61
2022/11/16 16:05:40;;;;;;;;;;;;;;;;;;5109659;27;19916;-61
2022/11/16 16:08:22;;;;;;;;;;;;;;;;;;5113081;27;20262;-61
2022/11/16 16:10:56;;;;;;;;;;;;;;;;;;5110719;27;19915;-61
2022/11/16 16:13:26;;;;;;;;;;;;;;;;;;5106968;27;19912;-61
2022/11/16 16:16:09;;;;;;;;;;;;;;;;;;5112171;27;20336;-61
2022/11/16 16:18:40;;;;;;;;;;;;;;;;;;5112398;27;19919;-61
2022/11/16 16:21:05;;;;;;;;;;;;;;;;;;5110405;27;19916;-60
2022/11/16 16:23:30;;;;;;;;;;;;;;;;;;5104340;27;19928;-60
2022/11/16 16:25:56;;;;;;;;;;;;;;;;;;5109979;27;20408;-61
2022/11/16 16:28:21;;;;;;;;;;;;;;;;;;5115943;27;19915;-60
2022/11/16 16:30:49;;;;;;;;;;;;;;;;;;5112737;27;20393;-60
2022/11/16 16:33:17;;;;;;;;;;;;;;;;;;5105406;27;19917;-60
2022/11/16 16:35:44;;;;;;;;;;;;;;;;;;5107462;27;19924;-61
2022/11/16 16:38:11;;;;;;;;;;;;;;;;;;5110351;27;19920;-61
2022/11/16 16:40:36;;;;;;;;;;;;;;;;;;5109198;27;19922;-61
2022/11/16 16:43:02;;;;;;;;;;;;;;;;;;5107623;28;19915;-61
2022/11/16 16:45:42;;;;;;;;;;;;;;;;;;5107932;27;20391;-61
2022/11/16 16:48:11;;;;;;;;;;;;;;;;;;5107063;27;19920;-61
2022/11/16 16:50:37;;;;;;;;;;;;;;;;;;5108902;27;20398;-61
2022/11/16 16:53:03;;;;;;;;;;;;;;;;;;5104090;28;19923;-61
2022/11/16 16:55:28;;;;;;;;;;;;;;;;;;5105070;28;19934;-61
2022/11/16 16:57:57;;;;;;;;;;;;;;;;;;5105511;28;19958;-61
2022/11/16 17:00:22;;;;;;;;;;;;;;;;;;5105602;28;19915;-61
2022/11/16 17:02:48;;;;;;;;;;;;;;;;;;5106019;27;20342;-61
2022/11/16 17:05:13;;;;;;;;;;;;;;;;;;5109593;27;19919;-61
2022/11/16 17:07:38;;;;;;;;;;;;;;;;;;5104883;28;19916;-60
2022/11/16 17:10:04;;;;;;;;;;;;;;;;;;5103266;28;20078;-60
2022/11/16 17:12:29;;;;;;;;;;;;;;;;;;5109132;27;19916;-61
2022/11/16 17:14:54;;;;;;;;;;;;;;;;;;5107969;27;19928;-61
2022/11/16 17:17:20;;;;;;;;;;;;;;;;;;5105623;28;19922;-60
2022/11/16 17:19:46;;;;;;;;;;;;;;;;;;5104459;27;20384;-60
2022/11/16 17:22:11;;;;;;;;;;;;;;;;;;5103787;28;19922;-60
2022/11/16 17:24:37;;;;;;;;;;;;;;;;;;5105148;28;19916;-60
2022/11/16 17:27:02;;;;;;;;;;;;;;;;;;5109977;28;19920;-61
2022/11/16 17:29:27;;;;;;;;;;;;;;;;;;5107393;28;19962;-61
2022/11/16 17:31:53;;;;;;;;;;;;;;;;;;5103388;28;21175;-58
2022/11/16 17:34:18;;;;;;;;;;;;;;;;;;5106151;28;19927;-59